createdAt,value
2018-06-27T00:02:23.156Z,21.57
2018-06-27T00:04:51.280Z,20.27
2018-06-27T00:07:19.413Z,21.03
2018-06-27T00:09:47.469Z,20.77
2018-06-27T00:12:15.573Z,21.83
2018-06-27T00:14:43.669Z,21.37
2018-06-27T00:17:11.859Z,21.60
2018-06-27T00:19:39.980Z,22.00
2018-06-27T00:22:08.100Z,21.27
2018-06-27T00:24:36.230Z,22.20
2018-06-27T00:27:04.407Z,19.60
2018-06-27T00:29:32.625Z,22.20
2018-06-27T00:32:00.777Z,21.13
2018-06-27T00:34:28.887Z,21.77
2018-06-27T00:36:56.988Z,21.73
2018-06-27T00:39:25.153Z,20.50
2018-06-27T00:41:53.268Z,22.40
2018-06-27T00:44:21.379Z,21.50
2018-06-27T00:46:49.517Z,20.30
2018-06-27T00:49:17.617Z,22.70
2018-06-27T00:51:45.729Z,23.17
2018-06-27T00:54:13.866Z,21.67
2018-06-27T00:56:42.184Z,22.40
2018-06-27T00:59:10.396Z,23.60
2018-06-27T01:01:39.143Z,21.33
2018-06-27T01:04:07.357Z,21.60
2018-06-27T01:06:35.479Z,22.90
2018-06-27T01:09:05.868Z,22.50
2018-06-27T01:11:33.990Z,23.93
2018-06-27T01:14:02.088Z,23.47
2018-06-27T01:16:30.195Z,23.63
2018-06-27T01:18:58.311Z,24.93
2018-06-27T01:21:26.426Z,23.57
2018-06-27T01:23:54.527Z,22.10
2018-06-27T01:26:22.645Z,23.40
2018-06-27T01:28:50.796Z,23.07
2018-06-27T01:31:18.933Z,20.90
2018-06-27T01:33:47.035Z,22.77
2018-06-27T01:36:15.256Z,21.03
2018-06-27T01:38:43.373Z,20.17
2018-06-27T01:41:11.495Z,21.13
2018-06-27T01:43:39.623Z,24.73
2018-06-27T01:46:07.744Z,23.00
2018-06-27T01:48:35.839Z,22.50
2018-06-27T01:51:03.953Z,22.53
2018-06-27T01:53:32.055Z,20.40
2018-06-27T01:56:00.188Z,22.07
2018-06-27T01:58:28.303Z,21.43
2018-06-27T02:00:56.456Z,22.70
2018-06-27T02:03:24.556Z,19.17
2018-06-27T02:05:52.680Z,19.43
2018-06-27T02:08:20.791Z,21.47
2018-06-27T02:10:48.901Z,20.03
2018-06-27T02:13:17.074Z,19.30
2018-06-27T02:15:45.174Z,20.60
2018-06-27T02:18:13.341Z,20.90
2018-06-27T02:20:41.439Z,19.90
2018-06-27T02:23:10.889Z,21.30
2018-06-27T02:25:39.655Z,21.60
2018-06-27T02:28:08.236Z,21.13
2018-06-27T02:30:36.370Z,22.00
2018-06-27T02:33:04.488Z,19.60
2018-06-27T02:35:32.576Z,21.00
2018-06-27T02:38:00.685Z,21.10
2018-06-27T02:40:28.820Z,22.57
2018-06-27T02:42:56.933Z,22.03
2018-06-27T02:45:25.053Z,23.37
2018-06-27T02:47:53.169Z,21.47
2018-06-27T02:50:21.290Z,21.87
2018-06-27T02:52:49.406Z,21.00
2018-06-27T02:55:17.528Z,20.87
2018-06-27T02:57:45.660Z,20.50
2018-06-27T03:00:15.323Z,23.97
2018-06-27T03:02:43.930Z,22.67
2018-06-27T03:05:12.434Z,21.00
2018-06-27T03:07:40.549Z,22.43
2018-06-27T03:10:08.697Z,26.00
2018-06-27T03:12:36.874Z,24.67
2018-06-27T03:15:05.801Z,23.70
2018-06-27T03:17:33.941Z,23.40
2018-06-27T03:20:02.100Z,23.27
2018-06-27T03:22:30.224Z,22.43
2018-06-27T03:24:58.356Z,24.80
2018-06-27T03:27:26.500Z,22.50
2018-06-27T03:29:54.604Z,26.30
2018-06-27T03:32:22.730Z,27.67
2018-06-27T03:34:50.845Z,27.23
2018-06-27T03:37:18.986Z,27.47
2018-06-27T03:39:47.097Z,30.27
2018-06-27T03:42:15.209Z,33.13
2018-06-27T03:44:43.319Z,32.67
2018-06-27T03:47:11.436Z,35.57
2018-06-27T03:49:39.543Z,37.90
2018-06-27T03:52:07.702Z,35.87
2018-06-27T03:54:35.816Z,36.73
2018-06-27T03:57:03.939Z,36.63
2018-06-27T03:59:32.040Z,39.00
2018-06-27T04:02:00.200Z,38.77
2018-06-27T04:04:28.305Z,39.40
2018-06-27T04:06:56.433Z,42.00
2018-06-27T04:09:24.572Z,39.27
2018-06-27T04:11:52.683Z,38.27
2018-06-27T04:14:20.835Z,37.97
2018-06-27T04:16:48.972Z,37.57
2018-06-27T04:19:17.096Z,37.17
2018-06-27T04:21:45.196Z,36.03
2018-06-27T04:24:13.320Z,34.70
2018-06-27T04:26:41.492Z,37.30
2018-06-27T04:29:09.629Z,35.97
2018-06-27T04:31:37.715Z,35.40
2018-06-27T04:34:05.870Z,36.13
2018-06-27T04:36:33.967Z,33.30
2018-06-27T04:39:02.072Z,36.70
2018-06-27T04:41:30.176Z,33.90
2018-06-27T04:43:58.285Z,34.20
2018-06-27T04:46:26.392Z,36.27
2018-06-27T04:48:54.480Z,35.30
2018-06-27T04:51:22.591Z,37.73
2018-06-27T04:53:50.680Z,35.17
2018-06-27T04:56:18.777Z,33.10
2018-06-27T04:58:46.872Z,30.80
2018-06-27T05:01:14.980Z,29.57
2018-06-27T05:03:43.439Z,30.43
2018-06-27T05:06:11.548Z,30.70
2018-06-27T05:08:39.637Z,31.20
2018-06-27T05:11:07.728Z,30.57
2018-06-27T05:13:35.841Z,32.70
2018-06-27T05:16:04.046Z,29.87
2018-06-27T05:18:32.105Z,30.90
2018-06-27T05:21:00.213Z,33.73
2018-06-27T05:23:28.316Z,31.53
2018-06-27T05:25:56.417Z,33.37
2018-06-27T05:28:24.514Z,32.87
2018-06-27T05:30:52.612Z,31.17
2018-06-27T05:33:20.814Z,27.70
2018-06-27T05:35:48.908Z,26.57
2018-06-27T05:38:17.016Z,25.63
2018-06-27T05:40:45.132Z,24.53
2018-06-27T05:43:13.248Z,26.03
2018-06-27T05:45:41.332Z,23.40
2018-06-27T05:48:09.428Z,24.10
2018-06-27T05:50:37.520Z,23.67
2018-06-27T05:53:05.663Z,20.30
2018-06-27T05:55:33.770Z,19.70
2018-06-27T05:58:01.900Z,21.07
2018-06-27T06:00:29.989Z,18.67
2018-06-27T06:02:58.085Z,18.77
2018-06-27T06:05:26.196Z,17.57
2018-06-27T06:07:54.291Z,16.03
2018-06-27T06:10:22.388Z,15.50
2018-06-27T06:12:50.505Z,16.70
2018-06-27T06:15:18.609Z,18.27
2018-06-27T06:17:46.730Z,16.27
2018-06-27T06:20:14.862Z,15.47
2018-06-27T06:22:43.003Z,15.83
2018-06-27T06:25:11.087Z,14.57
2018-06-27T06:27:39.196Z,14.03
2018-06-27T06:30:07.392Z,13.60
2018-06-27T06:32:35.492Z,14.53
2018-06-27T06:35:03.613Z,14.33
2018-06-27T06:37:31.870Z,14.30
2018-06-27T06:39:59.853Z,13.30
2018-06-27T06:42:27.967Z,14.00
2018-06-27T06:44:56.072Z,12.77
2018-06-27T06:47:24.245Z,13.77
2018-06-27T06:49:52.374Z,13.37
2018-06-27T06:52:20.482Z,12.73
2018-06-27T06:54:48.602Z,11.83
2018-06-27T06:57:16.510Z,12.70
2018-06-27T06:59:44.625Z,11.53
2018-06-27T07:02:12.869Z,12.03
2018-06-27T07:04:41.038Z,11.33
2018-06-27T07:07:09.144Z,10.90
2018-06-27T07:09:37.281Z,10.40
2018-06-27T07:12:05.552Z,10.43
2018-06-27T07:14:33.685Z,8.47
2018-06-27T07:17:01.839Z,9.97
2018-06-27T07:19:30.325Z,8.10
2018-06-27T07:21:58.441Z,8.50
2018-06-27T07:24:26.577Z,7.43
2018-06-27T07:26:54.688Z,6.93
2018-06-27T07:29:22.792Z,5.60
2018-06-27T07:31:51.503Z,5.20
2018-06-27T07:34:19.653Z,5.53
2018-06-27T07:36:47.781Z,6.47
2018-06-27T07:39:15.903Z,5.67
2018-06-27T07:41:44.020Z,5.47
2018-06-27T07:44:12.147Z,6.30
2018-06-27T07:46:40.276Z,5.27
2018-06-27T07:49:08.384Z,6.40
2018-06-27T07:51:36.565Z,6.03
2018-06-27T07:54:04.792Z,6.60
2018-06-27T07:56:33.013Z,6.90
2018-06-27T07:59:01.100Z,6.50
2018-06-27T08:01:29.214Z,6.20
2018-06-27T08:03:57.305Z,6.03
2018-06-27T08:06:25.408Z,8.30
2018-06-27T08:08:53.549Z,5.63
2018-06-27T08:11:21.673Z,5.90
2018-06-27T08:13:49.818Z,5.90
2018-06-27T08:16:17.945Z,4.47
2018-06-27T08:18:46.060Z,3.57
2018-06-27T08:21:14.193Z,4.00
2018-06-27T08:23:42.284Z,2.90
2018-06-27T08:26:10.481Z,3.10
2018-06-27T08:28:38.494Z,3.60
2018-06-27T08:31:06.792Z,4.00
2018-06-27T08:33:34.872Z,4.07
2018-06-27T08:36:02.976Z,3.33
2018-06-27T08:38:31.064Z,3.20
2018-06-27T08:40:59.152Z,3.13
2018-06-27T08:43:27.248Z,3.00
2018-06-27T08:45:55.377Z,3.30
2018-06-27T08:48:23.488Z,3.00
2018-06-27T08:50:51.576Z,2.80
2018-06-27T08:53:19.672Z,2.60
2018-06-27T08:55:47.773Z,3.03
2018-06-27T08:58:15.878Z,2.67
2018-06-27T09:00:43.975Z,3.40
2018-06-27T09:03:12.068Z,2.17
2018-06-27T09:05:40.179Z,2.67
2018-06-27T09:08:08.281Z,2.30
2018-06-27T09:10:36.383Z,1.97
2018-06-27T09:13:04.505Z,2.23
2018-06-27T09:15:32.671Z,3.20
2018-06-27T09:18:00.772Z,2.50
2018-06-27T09:20:28.876Z,2.40
2018-06-27T09:22:56.960Z,2.03
2018-06-27T09:25:25.057Z,2.33
2018-06-27T09:27:53.148Z,2.33
2018-06-27T09:30:21.224Z,2.20
2018-06-27T09:32:49.324Z,2.07
2018-06-27T09:35:17.434Z,2.67
2018-06-27T09:37:45.534Z,1.97
2018-06-27T09:40:13.676Z,2.10
2018-06-27T09:42:41.765Z,2.60
2018-06-27T09:45:09.924Z,2.80
2018-06-27T09:47:38.065Z,2.10
2018-06-27T09:50:06.453Z,1.90
2018-06-27T09:52:34.591Z,2.50
2018-06-27T09:55:02.714Z,2.07
2018-06-27T09:57:30.786Z,2.10
2018-06-27T09:59:58.888Z,2.50
2018-06-27T10:02:27.002Z,2.47
2018-06-27T10:04:55.164Z,2.60
2018-06-27T10:07:23.260Z,2.50
2018-06-27T10:09:51.365Z,2.30
2018-06-27T10:12:19.457Z,2.63
2018-06-27T10:14:47.541Z,2.70
2018-06-27T10:17:15.666Z,2.50
2018-06-27T10:19:43.729Z,2.90
2018-06-27T10:22:11.852Z,1.97
2018-06-27T10:27:33.592Z,2.57
2018-06-27T10:30:01.688Z,2.63
2018-06-27T10:32:29.792Z,2.37
2018-06-27T10:34:57.919Z,2.43
2018-06-27T10:37:25.988Z,2.40
2018-06-27T10:39:54.073Z,2.53
2018-06-27T10:42:22.210Z,1.80
2018-06-27T10:44:50.323Z,1.90
2018-06-27T10:47:18.472Z,1.53
2018-06-27T10:49:46.552Z,2.07
2018-06-27T10:52:14.631Z,1.90
2018-06-27T10:54:48.097Z,2.83
2018-06-27T10:57:16.641Z,2.07
2018-06-27T10:59:44.716Z,1.53
2018-06-27T11:02:12.805Z,1.93
2018-06-27T11:04:40.932Z,1.70
2018-06-27T11:07:09.025Z,1.43
2018-06-27T11:09:37.248Z,1.47
2018-06-27T11:12:05.370Z,1.77
2018-06-27T11:14:33.456Z,1.70
2018-06-27T11:17:01.773Z,2.30
2018-06-27T11:19:29.866Z,2.03
2018-06-27T11:21:58.238Z,1.73
2018-06-27T11:24:26.360Z,1.87
2018-06-27T11:26:54.847Z,1.50
2018-06-27T11:29:22.920Z,1.57
2018-06-27T11:31:51.456Z,1.90
2018-06-27T11:34:20.334Z,1.53
2018-06-27T11:36:48.612Z,1.33
2018-06-27T11:39:16.704Z,1.40
2018-06-27T11:41:44.584Z,1.50
2018-06-27T11:44:12.680Z,1.50
2018-06-27T11:46:40.783Z,1.40
2018-06-27T11:49:09.093Z,1.10
2018-06-27T11:51:37.183Z,1.37
2018-06-27T11:54:05.276Z,1.30
2018-06-27T11:56:34.022Z,1.40
2018-06-27T11:59:02.612Z,1.43
2018-06-27T12:01:30.559Z,1.40
2018-06-27T12:03:58.961Z,1.40
2018-06-27T12:06:27.245Z,1.60
2018-06-27T12:08:55.135Z,1.50
2018-06-27T12:11:23.245Z,1.50
2018-06-27T12:13:51.332Z,1.40
2018-06-27T12:16:20.535Z,1.40
2018-06-27T12:18:48.937Z,1.30
2018-06-27T12:21:17.067Z,1.20
2018-06-27T12:23:45.177Z,1.20
2018-06-27T12:26:13.314Z,1.37
2018-06-27T12:28:41.422Z,1.50
2018-06-27T12:31:09.507Z,1.40
2018-06-27T12:33:37.646Z,1.50
2018-06-27T12:36:05.733Z,1.60
2018-06-27T12:38:33.907Z,1.50
2018-06-27T12:41:02.044Z,1.20
2018-06-27T12:43:30.136Z,1.07
2018-06-27T12:45:58.235Z,1.50
2018-06-27T12:48:26.334Z,1.37
2018-06-27T12:50:54.409Z,1.50
2018-06-27T12:53:22.484Z,1.20
2018-06-27T12:55:50.586Z,1.20
2018-06-27T12:58:18.684Z,1.37
2018-06-27T13:00:46.777Z,1.30
2018-06-27T13:03:14.891Z,1.67
2018-06-27T13:05:42.974Z,1.10
2018-06-27T13:08:11.120Z,1.27
2018-06-27T13:10:39.204Z,1.33
2018-06-27T13:13:07.299Z,0.93
2018-06-27T13:15:35.390Z,1.40
2018-06-27T13:18:03.498Z,1.40
2018-06-27T13:20:31.618Z,1.50
2018-06-27T13:22:59.717Z,1.37
2018-06-27T13:25:27.835Z,1.57
2018-06-27T13:27:55.950Z,1.40
2018-06-27T13:30:24.056Z,1.73
2018-06-27T13:32:52.445Z,1.20
2018-06-27T13:35:20.549Z,1.10
2018-06-27T13:37:48.672Z,1.27
2018-06-27T13:40:17.686Z,1.03
2018-06-27T13:42:45.834Z,1.10
2018-06-27T13:45:13.967Z,1.00
2018-06-27T13:47:42.081Z,1.20
2018-06-27T13:50:10.246Z,1.10
2018-06-27T13:52:38.332Z,1.10
2018-06-27T13:55:06.447Z,1.10
2018-06-27T13:57:34.551Z,1.03
2018-06-27T14:00:02.660Z,1.30
2018-06-27T14:02:30.769Z,0.80
2018-06-27T14:04:58.884Z,1.00
2018-06-27T14:07:26.988Z,1.20
2018-06-27T14:09:55.100Z,1.43
2018-06-27T14:12:23.200Z,1.20
2018-06-27T14:14:51.311Z,0.90
2018-06-27T14:17:19.416Z,0.97
2018-06-27T14:19:47.514Z,1.27
2018-06-27T14:22:19.097Z,1.47
2018-06-27T14:24:47.174Z,0.97
2018-06-27T14:27:15.284Z,1.10
2018-06-27T14:29:43.381Z,0.87
2018-06-27T14:32:11.459Z,0.93
2018-06-27T14:34:39.552Z,0.83
2018-06-27T14:37:07.643Z,1.07
2018-06-27T14:39:35.743Z,1.07
2018-06-27T14:42:03.832Z,1.27
2018-06-27T14:44:31.964Z,1.00
2018-06-27T14:49:53.151Z,1.20
2018-06-27T14:52:21.242Z,1.00
2018-06-27T14:54:49.996Z,0.80
2018-06-27T14:57:18.461Z,1.37
2018-06-27T14:59:47.197Z,0.80
2018-06-27T15:02:15.528Z,1.20
2018-06-27T15:04:43.680Z,1.03
2018-06-27T15:07:11.733Z,1.17
2018-06-27T15:09:39.936Z,1.07
2018-06-27T15:12:08.048Z,0.93
2018-06-27T15:14:36.132Z,1.10
2018-06-27T15:17:04.241Z,1.30
2018-06-27T15:19:32.392Z,0.90
2018-06-27T15:22:00.481Z,0.93
2018-06-27T15:24:28.596Z,0.80
2018-06-27T15:26:56.704Z,0.80
2018-06-27T15:29:24.813Z,1.10
2018-06-27T15:31:52.986Z,1.10
2018-06-27T15:34:21.119Z,1.07
2018-06-27T15:36:49.220Z,1.13
2018-06-27T15:39:17.353Z,1.17
2018-06-27T15:41:45.504Z,0.93
2018-06-27T15:44:13.613Z,1.53
2018-06-27T15:46:41.732Z,1.00
2018-06-27T15:49:10.463Z,0.80
2018-06-27T15:51:38.844Z,1.03
2018-06-27T15:54:06.935Z,0.90
2018-06-27T15:56:36.116Z,1.00
2018-06-27T15:59:04.308Z,1.20
2018-06-27T16:01:32.424Z,1.00
2018-06-27T16:04:00.618Z,1.00
2018-06-27T16:06:28.664Z,1.30
2018-06-27T16:08:56.882Z,1.07
2018-06-27T16:11:25.023Z,1.13
2018-06-27T16:13:53.126Z,1.10
2018-06-27T16:16:21.346Z,1.20
2018-06-27T16:18:49.690Z,1.17
2018-06-27T16:21:17.785Z,1.23
2018-06-27T16:23:45.981Z,0.90
2018-06-27T16:26:14.077Z,1.37
2018-06-27T16:28:42.160Z,1.47
2018-06-27T16:31:10.256Z,1.03
2018-06-27T16:33:38.537Z,1.40
2018-06-27T16:36:06.678Z,1.13
2018-06-27T16:38:34.768Z,1.10
2018-06-27T16:41:02.885Z,0.90
2018-06-27T16:43:31.111Z,1.47
2018-06-27T16:45:59.130Z,1.10
2018-06-27T16:48:27.217Z,1.00
2018-06-27T16:50:55.338Z,1.20
2018-06-27T16:53:23.443Z,0.83
2018-06-27T16:55:51.548Z,0.90
2018-06-27T16:58:19.648Z,0.80
2018-06-27T17:00:48.891Z,0.93
2018-06-27T17:03:17.036Z,1.03
2018-06-27T17:05:45.105Z,1.30
2018-06-27T17:08:13.213Z,0.93
2018-06-27T17:10:41.100Z,1.00
2018-06-27T17:13:09.252Z,1.00
2018-06-27T17:15:37.337Z,0.90
2018-06-27T17:18:05.443Z,1.17
2018-06-27T17:20:33.537Z,1.53
2018-06-27T17:23:01.637Z,1.03
2018-06-27T17:25:29.763Z,1.03
2018-06-27T17:27:57.857Z,1.20
2018-06-27T17:30:25.957Z,1.20
2018-06-27T17:32:54.066Z,1.00
2018-06-27T17:35:22.152Z,1.00
2018-06-27T17:37:50.239Z,1.27
2018-06-27T17:40:18.335Z,1.10
2018-06-27T17:42:46.472Z,1.17
2018-06-27T17:45:14.607Z,1.07
2018-06-27T17:47:42.694Z,0.93
2018-06-27T17:50:10.787Z,1.10
2018-06-27T17:52:38.883Z,1.27
2018-06-27T17:55:06.964Z,1.07
2018-06-27T17:57:35.074Z,0.90
2018-06-27T18:00:03.201Z,1.07
2018-06-27T18:02:31.306Z,1.30
2018-06-27T18:04:59.380Z,1.40
2018-06-27T18:07:27.496Z,1.17
2018-06-27T18:09:55.585Z,0.90
2018-06-27T18:12:23.673Z,1.10
2018-06-27T18:14:51.755Z,1.10
2018-06-27T18:17:19.961Z,1.10
2018-06-27T18:19:48.432Z,1.30
2018-06-27T18:22:16.542Z,1.27
2018-06-27T18:24:44.644Z,1.10
2018-06-27T18:27:12.760Z,1.00
2018-06-27T18:29:40.868Z,1.63
2018-06-27T18:32:08.965Z,2.07
2018-06-27T18:34:37.080Z,1.37
2018-06-27T18:37:05.188Z,1.50
2018-06-27T18:39:33.307Z,1.37
2018-06-27T18:42:01.413Z,1.77
2018-06-27T18:44:29.525Z,1.50
2018-06-27T18:46:57.633Z,1.50
2018-06-27T18:49:25.733Z,1.27
2018-06-27T18:51:53.865Z,1.40
2018-06-27T18:54:21.960Z,1.07
2018-06-27T18:56:50.098Z,1.90
2018-06-27T18:59:18.421Z,1.60
2018-06-27T19:01:46.526Z,1.60
2018-06-27T19:04:14.721Z,1.80
2018-06-27T19:06:42.861Z,1.43
2018-06-27T19:09:12.361Z,1.50
2018-06-27T19:11:41.157Z,1.47
2018-06-27T19:14:09.297Z,1.33
2018-06-27T19:16:37.437Z,1.70
2018-06-27T19:19:05.678Z,1.50
2018-06-27T19:21:33.748Z,1.77
2018-06-27T19:24:01.823Z,1.40
2018-06-27T19:26:29.931Z,1.90
2018-06-27T19:28:58.031Z,1.70
2018-06-27T19:31:26.107Z,1.70
2018-06-27T19:33:54.285Z,1.70
2018-06-27T19:36:22.391Z,1.77
2018-06-27T19:38:50.296Z,1.60
2018-06-27T19:41:18.495Z,1.50
2018-06-27T19:43:46.481Z,1.73
2018-06-27T19:46:14.565Z,1.70
2018-06-27T19:48:42.865Z,1.53
2018-06-27T19:51:10.960Z,1.47
2018-06-27T19:53:39.044Z,1.57
2018-06-27T19:56:07.128Z,1.60
2018-06-27T19:58:35.228Z,1.63
2018-06-27T20:01:03.391Z,2.13
2018-06-27T20:03:31.493Z,1.80
2018-06-27T20:05:59.573Z,1.70
2018-06-27T20:08:27.706Z,1.87
2018-06-27T20:10:55.786Z,1.90
2018-06-27T20:13:23.870Z,1.60
2018-06-27T20:15:52.031Z,2.13
2018-06-27T20:18:20.049Z,1.60
2018-06-27T20:20:48.148Z,1.80
2018-06-27T20:23:16.295Z,1.80
2018-06-27T20:25:44.389Z,2.20
2018-06-27T20:28:12.604Z,2.03
2018-06-27T20:30:40.728Z,2.63
2018-06-27T20:33:08.817Z,1.87
2018-06-27T20:35:36.911Z,1.70
2018-06-27T20:38:05.155Z,3.90
2018-06-27T20:40:33.266Z,2.00
2018-06-27T20:43:01.361Z,2.00
2018-06-27T20:45:29.445Z,1.80
2018-06-27T20:47:57.549Z,1.50
2018-06-27T20:50:25.639Z,1.80
2018-06-27T20:52:53.736Z,2.10
2018-06-27T20:55:21.948Z,2.17
2018-06-27T20:57:49.967Z,2.10
2018-06-27T21:00:18.073Z,2.10
2018-06-27T21:02:46.176Z,1.70
2018-06-27T21:05:14.280Z,2.03
2018-06-27T21:07:42.378Z,1.70
2018-06-27T21:10:10.456Z,1.80
2018-06-27T21:12:38.576Z,1.73
2018-06-27T21:15:06.674Z,2.03
2018-06-27T21:17:34.764Z,2.00
2018-06-27T21:20:02.910Z,2.20
2018-06-27T21:22:31.008Z,2.20
2018-06-27T21:24:59.106Z,2.10
2018-06-27T21:27:27.265Z,2.60
2018-06-27T21:29:55.383Z,3.20
2018-06-27T21:32:23.475Z,2.67
2018-06-27T21:34:51.587Z,2.37
2018-06-27T21:37:19.709Z,2.23
2018-06-27T21:39:47.829Z,2.50
2018-06-27T21:42:15.942Z,3.30
2018-06-27T21:44:44.053Z,3.13
2018-06-27T21:47:12.174Z,2.70
2018-06-27T21:49:40.276Z,3.37
2018-06-27T21:52:08.386Z,2.70
2018-06-27T21:54:36.488Z,3.20
2018-06-27T21:57:04.620Z,2.77
2018-06-27T21:59:32.749Z,2.90
2018-06-27T22:02:00.841Z,2.80
2018-06-27T22:04:28.958Z,2.83
2018-06-27T22:06:57.070Z,3.27
2018-06-27T22:09:25.232Z,3.20
2018-06-27T22:11:53.320Z,2.50
2018-06-27T22:14:21.437Z,2.87
2018-06-27T22:16:49.585Z,3.00
2018-06-27T22:19:17.640Z,2.80
2018-06-27T22:21:45.722Z,2.40
2018-06-27T22:24:13.984Z,2.13
2018-06-27T22:26:42.085Z,2.13
2018-06-27T22:29:10.200Z,2.97
2018-06-27T22:31:38.294Z,2.67
2018-06-27T22:34:06.383Z,2.40
2018-06-27T22:36:34.509Z,2.70
2018-06-27T22:39:02.632Z,1.97
2018-06-27T22:41:30.747Z,2.33
2018-06-27T22:43:58.949Z,3.10
2018-06-27T22:46:27.060Z,2.83
2018-06-27T22:48:55.179Z,3.00
2018-06-27T22:51:24.809Z,2.70
2018-06-27T22:53:53.308Z,3.13
2018-06-27T22:56:21.400Z,2.50
2018-06-27T22:58:49.529Z,3.10
2018-06-27T23:01:17.655Z,2.70
2018-06-27T23:03:45.779Z,3.37
2018-06-27T23:06:13.900Z,3.50
2018-06-27T23:08:42.268Z,2.57
2018-06-27T23:11:10.416Z,3.30
2018-06-27T23:13:38.533Z,3.07
2018-06-27T23:16:06.796Z,2.93
2018-06-27T23:18:35.070Z,3.20
2018-06-27T23:21:03.241Z,2.97
2018-06-27T23:23:31.361Z,3.03
2018-06-27T23:25:59.489Z,2.80
2018-06-27T23:28:27.625Z,3.40
2018-06-27T23:30:55.733Z,2.70
2018-06-27T23:33:23.858Z,3.60
2018-06-27T23:35:51.976Z,3.70
2018-06-27T23:38:20.106Z,3.17
2018-06-27T23:40:48.228Z,3.43
2018-06-27T23:43:16.352Z,3.60
2018-06-27T23:45:44.456Z,4.00
2018-06-27T23:48:12.648Z,4.03
2018-06-27T23:50:40.801Z,3.80
2018-06-27T23:53:08.908Z,3.47
2018-06-27T23:55:37.044Z,3.50
2018-06-27T23:58:05.924Z,4.30
